Time;durP1;ratioP1;P1;durP2;ratioP2;P2;SDS_P1;SDS_P2;PMS_P1;PMS_P2;Temp;Humidity;BMP_temperature;BMP_pressure;BME280_temperature;BME280_humidity;BME280_pressure;Samples;Min_cycle;Max_cycle;Signal;HPM_P1;HPM_P2
2022/06/25 00:02:07;;;;;;;2.50;1.33;;;21.50;99.90;;;;;;4937816;23;20456;-85
2022/06/25 00:07:18;;;;;;;3.07;1.50;;;21.40;99.90;;;;;;4942087;29;20031;-83
2022/06/25 00:09:44;;;;;;;4.30;1.58;;;21.40;99.90;;;;;;4940729;29;20059;-84
2022/06/25 00:14:54;;;;;;;4.72;1.33;;;21.30;99.90;;;;;;4936027;29;20055;-82
2022/06/25 00:17:20;;;;;;;5.22;1.40;;;21.20;99.90;;;;;;4921878;29;20024;-84
2022/06/25 00:19:47;;;;;;;2.78;1.42;;;21.20;99.90;;;;;;4923190;29;20489;-81
2022/06/25 00:22:13;;;;;;;7.20;1.50;;;21.20;99.90;;;;;;4922692;29;20101;-83
2022/06/25 00:24:38;;;;;;;3.55;1.40;;;21.10;99.90;;;;;;4923478;29;20028;-82
2022/06/25 00:27:05;;;;;;;5.28;1.77;;;21.20;99.90;;;;;;4925556;29;20032;-83
2022/06/25 00:29:31;;;;;;;3.90;1.95;;;21.10;99.90;;;;;;4926267;29;20039;-82
2022/06/25 00:31:56;;;;;;;7.90;1.73;;;21.00;99.90;;;;;;4924508;29;20029;-83
2022/06/25 00:34:23;;;;;;;3.15;1.33;;;21.00;99.90;;;;;;4922959;29;20493;-84
2022/06/25 00:36:49;;;;;;;5.47;2.08;;;20.90;99.90;;;;;;4921128;29;20039;-84
2022/06/25 00:39:15;;;;;;;5.18;1.58;;;20.90;99.90;;;;;;4922727;29;20028;-81
2022/06/25 00:41:42;;;;;;;2.85;1.60;;;20.80;99.90;;;;;;4925332;29;20056;-84
2022/06/25 00:44:09;;;;;;;3.67;1.90;;;20.80;99.90;;;;;;4950438;29;20036;-80
2022/06/25 00:46:35;;;;;;;4.72;1.83;;;20.80;99.90;;;;;;4934471;29;20059;-82
2022/06/25 00:49:02;;;;;;;2.25;1.40;;;20.80;99.90;;;;;;4944685;29;20044;-83
2022/06/25 00:51:33;;;;;;;6.78;2.30;;;20.70;99.90;;;;;;4925234;29;20127;-82
2022/06/25 00:54:08;;;;;;;5.68;2.28;;;20.70;99.90;;;;;;4926488;29;20068;-84
2022/06/25 00:56:38;;;;;;;4.35;2.05;;;20.70;99.90;;;;;;4940370;29;20565;-82
2022/06/25 00:59:05;;;;;;;3.72;2.10;;;20.70;99.90;;;;;;4929263;29;20060;-82
2022/06/25 01:01:34;;;;;;;4.38;1.75;;;20.70;99.90;;;;;;4925796;29;20036;-82
2022/06/25 01:04:00;;;;;;;4.78;1.88;;;20.70;99.90;;;;;;4930271;29;20129;-83
2022/06/25 01:06:28;;;;;;;5.03;2.20;;;20.70;99.90;;;;;;4925874;29;20043;-82
2022/06/25 01:08:58;;;;;;;5.70;2.35;;;20.70;99.90;;;;;;4940553;29;20080;-84
2022/06/25 01:11:25;;;;;;;4.90;2.30;;;20.70;99.90;;;;;;4925290;29;20151;-82
2022/06/25 01:13:52;;;;;;;4.07;1.88;;;20.70;99.90;;;;;;4907786;29;20059;-82
2022/06/25 01:16:20;;;;;;;4.13;1.20;;;20.70;99.90;;;;;;4922518;29;20056;-83
2022/06/25 01:18:47;;;;;;;7.07;1.20;;;20.70;99.90;;;;;;4922037;29;20091;-83
2022/06/25 01:21:13;;;;;;;3.80;1.30;;;20.60;99.90;;;;;;4923679;29;20032;-83
2022/06/25 01:23:40;;;;;;;3.95;0.93;;;20.60;99.90;;;;;;4925136;29;20040;-83
2022/06/25 01:26:07;;;;;;;2.20;0.80;;;20.50;99.90;;;;;;4934583;29;20032;-83
2022/06/25 01:28:33;;;;;;;2.15;0.65;;;20.40;99.90;;;;;;4925653;29;20127;-80
2022/06/25 01:30:59;;;;;;;4.63;0.93;;;20.20;99.90;;;;;;4930756;29;20067;-82
2022/06/25 01:33:24;;;;;;;0.98;0.50;;;20.10;99.90;;;;;;4935269;29;20024;-82
2022/06/25 01:35:51;;;;;;;5.15;0.95;;;20.10;99.90;;;;;;4930654;29;20048;-82
2022/06/25 01:38:16;;;;;;;2.53;0.50;;;20.10;99.90;;;;;;4931512;29;20036;-84
2022/06/25 01:40:42;;;;;;;1.33;0.70;;;20.10;99.90;;;;;;4928769;29;20035;-83
2022/06/25 01:43:08;;;;;;;1.60;0.50;;;20.00;99.90;;;;;;4945590;29;20122;-82
2022/06/25 01:45:36;;;;;;;0.22;0.22;;;19.80;99.90;;;;;;4925291;29;20031;-84
2022/06/25 01:48:04;;;;;;;5.88;0.80;;;19.60;99.90;;;;;;4921494;29;20115;-84
2022/06/25 01:50:30;;;;;;;5.53;0.32;;;19.50;99.90;;;;;;4921630;29;20052;-83
2022/06/25 01:52:57;;;;;;;0.50;0.30;;;19.50;99.90;;;;;;4919758;29;20031;-82
2022/06/25 01:55:23;;;;;;;1.85;0.40;;;19.20;99.90;;;;;;4928541;29;20036;-81
2022/06/25 01:57:50;;;;;;;1.50;0.40;;;19.10;99.90;;;;;;4929303;29;20028;-83
2022/06/25 02:00:21;;;;;;;0.82;0.40;;;19.00;99.90;;;;;;4928667;29;20046;-80
2022/06/25 02:02:53;;;;;;;0.85;0.47;;;18.90;99.90;;;;;;4933190;29;20031;-82
2022/06/25 02:08:11;;;;;;;0.90;0.40;;;19.00;99.90;;;;;;4931882;29;20040;-82
2022/06/25 02:10:37;;;;;;;0.68;0.30;;;18.90;99.90;;;;;;4932254;29;20096;-81
2022/06/25 02:13:03;;;;;;;3.63;0.35;;;18.90;99.90;;;;;;4931338;29;20043;-81
2022/06/25 02:15:29;;;;;;;2.17;0.28;;;18.90;99.90;;;;;;4932355;29;20084;-81
2022/06/25 02:17:55;;;;;;;0.88;0.30;;;18.90;99.90;;;;;;4930332;29;20028;-80
2022/06/25 02:20:21;;;;;;;1.33;0.40;;;18.80;99.90;;;;;;4949052;29;20036;-82
2022/06/25 02:22:49;;;;;;;0.45;0.40;;;18.70;99.90;;;;;;4933704;29;20043;-80
2022/06/25 02:25:15;;;;;;;4.65;0.30;;;18.60;99.90;;;;;;4942366;29;20067;-83
2022/06/25 02:27:40;;;;;;;1.80;0.30;;;18.60;99.90;;;;;;4928993;29;20029;-83
2022/06/25 02:30:07;;;;;;;2.47;0.20;;;18.60;99.90;;;;;;4928776;29;20040;-83
2022/06/25 02:32:33;;;;;;;1.65;0.52;;;18.80;99.90;;;;;;4941556;29;20111;-81
2022/06/25 02:35:01;;;;;;;0.85;0.30;;;18.80;99.90;;;;;;4923266;29;20036;-83
2022/06/25 02:37:26;;;;;;;4.03;0.30;;;18.80;99.90;;;;;;4923277;29;20135;-83
2022/06/25 02:39:53;;;;;;;3.25;0.25;;;18.90;99.90;;;;;;4923817;29;20032;-83
2022/06/25 02:42:19;;;;;;;2.45;0.20;;;18.80;99.90;;;;;;4939488;29;20024;-83
2022/06/25 02:44:45;;;;;;;0.55;0.20;;;18.80;99.90;;;;;;4942616;29;20024;-82
2022/06/25 02:47:11;;;;;;;0.10;0.10;;;18.70;99.90;;;;;;4942709;29;20099;-81
2022/06/25 02:49:53;;;;;;;5.93;0.15;;;18.80;99.90;;;;;;4941620;29;20024;-83
2022/06/25 02:52:19;;;;;;;0.45;0.20;;;18.80;99.90;;;;;;4924334;29;20051;-82
2022/06/25 02:54:45;;;;;;;0.40;0.20;;;18.80;99.90;;;;;;4924153;29;20445;-80
2022/06/25 02:59:56;;;;;;;0.33;0.20;;;18.80;99.90;;;;;;4949044;29;20133;-82
2022/06/25 03:02:22;;;;;;;0.95;0.20;;;18.80;99.90;;;;;;4940409;29;20024;-80
2022/06/25 03:04:50;;;;;;;0.20;0.20;;;18.80;99.90;;;;;;4946033;29;20043;-81
2022/06/25 03:07:17;;;;;;;0.65;0.25;;;18.80;99.90;;;;;;4940015;29;20032;-82
2022/06/25 03:09:43;;;;;;;0.45;0.20;;;18.70;99.90;;;;;;4921353;29;20531;-82
2022/06/25 03:12:09;;;;;;;1.95;0.20;;;18.70;99.90;;;;;;4925228;29;20028;-80
2022/06/25 03:14:39;;;;;;;1.75;0.22;;;18.80;99.90;;;;;;4926225;29;20028;-84
2022/06/25 03:17:05;;;;;;;0.88;0.25;;;18.90;99.90;;;;;;4930741;29;20051;-83
2022/06/25 03:19:51;;;;;;;1.02;0.60;;;19.00;99.90;;;;;;4930736;29;20067;-83
2022/06/25 03:22:25;;;;;;;0.40;0.20;;;18.90;99.90;;;;;;4929554;29;20032;-83
2022/06/25 03:24:51;;;;;;;0.98;0.20;;;18.90;99.90;;;;;;4928821;29;20039;-81
2022/06/25 03:27:17;;;;;;;3.15;0.30;;;19.00;99.90;;;;;;4945950;29;20453;-82
2022/06/25 03:29:46;;;;;;;0.80;0.30;;;19.00;99.90;;;;;;4946472;29;20028;-83
2022/06/25 03:32:14;;;;;;;0.38;0.20;;;18.90;99.90;;;;;;4947821;29;20032;-81
2022/06/25 03:35:09;;;;;;;0.70;0.28;;;19.00;99.90;;;;;;4921854;29;20036;-83
2022/06/25 03:37:43;;;;;;;0.25;0.25;;;19.00;99.90;;;;;;4944886;29;20500;-82
2022/06/25 03:40:09;;;;;;;1.63;0.47;;;19.00;99.90;;;;;;4944508;29;20043;-81
2022/06/25 03:42:36;;;;;;;0.82;0.20;;;19.00;99.90;;;;;;4927747;29;20055;-82
2022/06/25 03:45:06;;;;;;;0.15;0.15;;;18.90;99.90;;;;;;4944557;29;20032;-80
2022/06/25 03:47:34;;;;;;;0.10;0.10;;;19.00;99.90;;;;;;4945428;29;20040;-81
2022/06/25 03:50:02;;;;;;;0.25;0.13;;;19.00;99.90;;;;;;4941786;29;20118;-81
2022/06/25 03:52:28;;;;;;;2.25;0.20;;;18.90;99.90;;;;;;4926865;29;20032;-80
2022/06/25 03:54:54;;;;;;;1.10;0.63;;;18.80;99.90;;;;;;4920197;29;20044;-82
2022/06/25 03:57:20;;;;;;;1.55;0.30;;;18.90;99.90;;;;;;4933054;29;20088;-83
2022/06/25 04:00:18;;;;;;;2.28;0.28;;;19.00;99.90;;;;;;4904632;29;20037;-82
2022/06/25 04:02:54;;;;;;;0.20;0.13;;;19.00;99.90;;;;;;4920207;29;20032;-83
2022/06/25 04:05:44;;;;;;;1.98;0.20;;;19.00;99.90;;;;;;4907787;29;20604;-80
2022/06/25 04:08:28;;;;;;;2.53;0.38;;;18.90;99.90;;;;;;4925003;29;20032;-83
2022/06/25 04:10:56;;;;;;;0.88;0.28;;;18.90;99.90;;;;;;4901241;29;20036;-82
2022/06/25 04:13:22;;;;;;;2.47;0.20;;;18.80;99.90;;;;;;4901837;29;20516;-82
2022/06/25 04:15:48;;;;;;;0.13;0.13;;;18.50;99.90;;;;;;4902448;29;20032;-82
2022/06/25 04:18:15;;;;;;;0.95;0.20;;;18.50;99.90;;;;;;4900987;29;20020;-81
2022/06/25 04:20:41;;;;;;;3.63;0.20;;;18.40;99.90;;;;;;4901684;29;20029;-82
2022/06/25 04:23:08;;;;;;;0.63;0.20;;;18.20;99.90;;;;;;4901475;29;20028;-80
2022/06/25 04:25:34;;;;;;;0.68;0.20;;;18.10;99.90;;;;;;4903689;29;20032;-82
2022/06/25 04:30:45;;;;;;;1.27;0.87;;;18.00;99.90;;;;;;4902017;29;20036;-80
2022/06/25 04:33:10;;;;;;;0.25;0.22;;;18.00;99.90;;;;;;4915171;29;20277;-80
2022/06/25 04:35:50;;;;;;;1.75;0.30;;;17.90;99.90;;;;;;4932276;29;20039;-80
2022/06/25 04:38:43;;;;;;;0.40;0.20;;;17.90;99.90;;;;;;4913416;29;20109;-79
2022/06/25 04:41:10;;;;;;;2.88;0.40;;;17.90;99.90;;;;;;4914418;29;20115;-81
2022/06/25 04:43:36;;;;;;;0.47;0.20;;;17.80;99.90;;;;;;4911409;29;20469;-81
2022/06/25 04:46:08;;;;;;;0.30;0.30;;;17.80;99.90;;;;;;4917107;29;20088;-80
2022/06/25 04:48:39;;;;;;;0.20;0.20;;;17.80;99.90;;;;;;4902786;29;20033;-82
2022/06/25 04:51:24;;;;;;;0.20;0.20;;;17.60;99.90;;;;;;4925170;29;20485;-84
2022/06/25 04:53:57;;;;;;;0.75;0.32;;;17.50;99.90;;;;;;4902806;29;20024;-80
2022/06/25 04:56:36;;;;;;;2.33;0.60;;;17.40;99.90;;;;;;4901121;29;20032;-83
2022/06/25 04:59:03;;;;;;;1.33;0.60;;;17.50;99.90;;;;;;4917072;29;20056;-83
2022/06/25 05:01:48;;;;;;;1.10;0.40;;;17.30;99.90;;;;;;4904438;29;20120;-82
2022/06/25 05:04:14;;;;;;;0.40;0.40;;;17.30;99.90;;;;;;4904436;29;20781;-84
2022/06/25 05:06:39;;;;;;;2.05;0.45;;;17.20;99.90;;;;;;4901115;29;20401;-83
2022/06/25 05:09:05;;;;;;;2.13;0.50;;;17.20;99.90;;;;;;4900137;29;20032;-83
2022/06/25 05:11:31;;;;;;;0.30;0.30;;;17.10;99.90;;;;;;4900092;29;20433;-81
2022/06/25 05:13:57;;;;;;;1.02;0.68;;;17.10;99.90;;;;;;4901490;29;20032;-83
2022/06/25 05:16:23;;;;;;;0.82;0.40;;;17.20;99.90;;;;;;4925687;29;20485;-83
2022/06/25 05:18:49;;;;;;;1.02;0.40;;;17.30;99.90;;;;;;4912867;29;20086;-80
2022/06/25 05:21:15;;;;;;;0.88;0.30;;;17.30;99.90;;;;;;4911574;29;20107;-83
2022/06/25 05:23:42;;;;;;;1.17;0.32;;;17.40;99.90;;;;;;4918606;29;20033;-83
2022/06/25 05:26:08;;;;;;;0.57;0.30;;;17.40;99.90;;;;;;4902050;29;20055;-82
2022/06/25 05:28:34;;;;;;;0.90;0.40;;;17.50;99.90;;;;;;4902190;29;20036;-81
2022/06/25 05:31:00;;;;;;;0.47;0.40;;;17.40;99.90;;;;;;4902271;29;20028;-81
2022/06/25 05:33:25;;;;;;;0.30;0.30;;;17.40;99.90;;;;;;4901671;29;20025;-82
2022/06/25 05:35:53;;;;;;;0.30;0.30;;;17.40;99.90;;;;;;4906718;29;20048;-82
2022/06/25 05:38:20;;;;;;;0.55;0.55;;;17.50;99.90;;;;;;4914926;29;20155;-81
2022/06/25 05:40:46;;;;;;;0.57;0.50;;;17.50;99.90;;;;;;4915516;29;20028;-79
2022/06/25 05:43:13;;;;;;;0.85;0.60;;;17.50;99.90;;;;;;4916893;29;20048;-82
2022/06/25 05:45:39;;;;;;;0.73;0.45;;;17.50;99.90;;;;;;4918092;29;20020;-83
2022/06/25 05:48:05;;;;;;;1.67;0.57;;;17.60;99.90;;;;;;4933957;29;20052;-84
2022/06/25 05:50:31;;;;;;;3.85;0.43;;;17.60;99.90;;;;;;4908169;29;20032;-82
2022/06/25 05:52:57;;;;;;;0.60;0.60;;;17.70;99.90;;;;;;4905016;29;20047;-83
2022/06/25 05:55:24;;;;;;;0.43;0.38;;;17.80;99.90;;;;;;4912555;29;20032;-80
2022/06/25 05:57:51;;;;;;;3.00;0.43;;;17.80;99.90;;;;;;4912068;29;20032;-82
2022/06/25 06:00:18;;;;;;;1.08;0.52;;;17.80;99.90;;;;;;4906189;29;20111;-83
2022/06/25 06:02:44;;;;;;;3.13;0.47;;;17.90;99.90;;;;;;4931047;23;20056;-81
2022/06/25 06:05:10;;;;;;;1.80;0.50;;;18.10;99.90;;;;;;4938421;29;20416;-78
2022/06/25 06:07:36;;;;;;;0.40;0.30;;;18.10;99.90;;;;;;4938182;29;20031;-78
2022/06/25 06:10:03;;;;;;;1.35;0.40;;;18.00;99.90;;;;;;4939490;29;20099;-79
2022/06/25 06:12:30;;;;;;;2.65;0.70;;;18.00;99.90;;;;;;4937908;29;20111;-79
2022/06/25 06:14:55;;;;;;;1.25;0.52;;;18.00;99.90;;;;;;4935864;29;20098;-79
2022/06/25 06:17:21;;;;;;;0.77;0.50;;;18.00;99.90;;;;;;4929066;29;20108;-78
2022/06/25 06:19:47;;;;;;;3.60;0.60;;;18.00;99.90;;;;;;4930847;29;20023;-79
2022/06/25 06:22:13;;;;;;;0.50;0.40;;;18.00;99.90;;;;;;4943610;29;20032;-79
2022/06/25 06:24:39;;;;;;;1.33;0.50;;;18.00;99.90;;;;;;4930854;29;20043;-81
2022/06/25 06:27:05;;;;;;;2.05;0.50;;;18.10;99.90;;;;;;4933421;29;20058;-80
2022/06/25 06:29:31;;;;;;;0.80;0.40;;;18.10;99.90;;;;;;4916743;29;20024;-80
2022/06/25 06:31:57;;;;;;;0.73;0.52;;;18.00;99.90;;;;;;4937053;29;20440;-79
2022/06/25 06:34:22;;;;;;;2.58;0.52;;;18.00;99.90;;;;;;4920194;29;20107;-80
2022/06/25 06:36:48;;;;;;;1.00;0.60;;;17.90;99.90;;;;;;4934538;29;20035;-77
2022/06/25 06:39:14;;;;;;;1.45;0.60;;;17.90;99.90;;;;;;4928857;29;20028;-77
2022/06/25 06:41:40;;;;;;;2.50;0.52;;;17.90;99.90;;;;;;4938455;29;20083;-78
2022/06/25 06:44:06;;;;;;;0.75;0.40;;;18.00;99.90;;;;;;4938088;29;20035;-78
2022/06/25 06:46:32;;;;;;;2.85;0.68;;;18.10;99.90;;;;;;4938364;29;20043;-79
2022/06/25 06:48:58;;;;;;;0.55;0.28;;;18.20;99.90;;;;;;4943457;29;20035;-79
2022/06/25 06:51:24;;;;;;;0.38;0.38;;;18.10;99.90;;;;;;4938172;29;20038;-78
2022/06/25 06:53:49;;;;;;;0.70;0.45;;;18.10;99.90;;;;;;4942929;29;20023;-80
2022/06/25 06:56:15;;;;;;;3.22;0.57;;;18.10;99.90;;;;;;4947869;29;20035;-78
2022/06/25 06:58:41;;;;;;;0.65;0.65;;;18.20;99.90;;;;;;4942268;29;20024;-79
2022/06/25 07:01:07;;;;;;;3.42;0.40;;;18.40;99.90;;;;;;4945836;29;20039;-79
2022/06/25 07:03:33;;;;;;;2.22;0.60;;;18.40;99.90;;;;;;4949970;29;20063;-78
2022/06/25 07:05:59;;;;;;;1.67;0.60;;;18.60;99.90;;;;;;4948822;29;20099;-78
2022/06/25 07:08:24;;;;;;;1.02;0.60;;;18.80;99.90;;;;;;4947914;29;20032;-77
2022/06/25 07:10:50;;;;;;;1.00;0.60;;;18.70;99.90;;;;;;4949096;29;20043;-78
2022/06/25 07:13:16;;;;;;;0.57;0.57;;;18.60;99.90;;;;;;4942920;29;20026;-77
2022/06/25 07:15:42;;;;;;;1.95;1.17;;;18.50;99.90;;;;;;4941791;29;20072;-80
2022/06/25 07:18:08;;;;;;;1.00;0.50;;;18.50;99.90;;;;;;4941923;29;20043;-78
2022/06/25 07:20:34;;;;;;;1.77;1.10;;;18.50;99.90;;;;;;4938708;29;20036;-78
2022/06/25 07:23:00;;;;;;;0.55;0.50;;;18.70;99.90;;;;;;4938473;29;20024;-79
2022/06/25 07:25:26;;;;;;;1.00;0.80;;;18.80;99.90;;;;;;4945865;29;20032;-78
2022/06/25 07:27:51;;;;;;;0.32;0.32;;;18.90;99.90;;;;;;4951324;29;20032;-84
2022/06/25 07:30:17;;;;;;;1.52;0.77;;;18.90;99.90;;;;;;4955247;29;20040;-77
2022/06/25 07:32:43;;;;;;;0.60;0.60;;;18.90;99.90;;;;;;4952379;29;20028;-80
2022/06/25 07:35:09;;;;;;;0.60;0.60;;;19.00;99.90;;;;;;4945778;29;20101;-79
2022/06/25 07:37:36;;;;;;;0.55;0.50;;;19.00;99.90;;;;;;4936548;29;20076;-78
2022/06/25 07:40:03;;;;;;;1.33;0.70;;;19.10;99.90;;;;;;4936632;29;20023;-78
2022/06/25 07:42:30;;;;;;;3.58;0.60;;;19.30;99.90;;;;;;4965169;29;20031;-78
2022/06/25 07:44:57;;;;;;;1.70;1.02;;;19.30;99.90;;;;;;4936723;29;20052;-77
2022/06/25 07:47:22;;;;;;;1.30;0.65;;;19.40;99.90;;;;;;4925127;29;20700;-80
2022/06/25 07:52:32;;;;;;;1.75;0.63;;;19.70;99.90;;;;;;4923118;29;20484;-79
2022/06/25 07:55:00;;;;;;;1.38;0.70;;;19.80;99.90;;;;;;4922815;29;20028;-80
2022/06/25 07:57:25;;;;;;;0.90;0.70;;;19.80;99.90;;;;;;4938449;29;20036;-78
2022/06/25 07:59:51;;;;;;;5.70;0.98;;;19.80;99.90;;;;;;4922772;29;20024;-80
2022/06/25 08:02:17;;;;;;;0.82;0.75;;;19.80;99.90;;;;;;4924471;29;20039;-79
2022/06/25 08:04:43;;;;;;;0.73;0.70;;;19.90;99.90;;;;;;4924300;29;20044;-79
2022/06/25 08:07:10;;;;;;;1.40;0.90;;;20.10;99.90;;;;;;4923828;29;20028;-80
2022/06/25 08:09:36;;;;;;;0.73;0.70;;;20.10;99.90;;;;;;4926308;29;20039;-79
2022/06/25 08:12:04;;;;;;;0.93;0.65;;;20.20;99.90;;;;;;4929698;29;20118;-82
2022/06/25 08:14:29;;;;;;;0.73;0.73;;;20.20;99.90;;;;;;4929244;29;20118;-78
2022/06/25 08:16:55;;;;;;;2.70;1.23;;;20.10;99.90;;;;;;4924201;29;20036;-81
2022/06/25 08:19:22;;;;;;;2.40;1.10;;;20.00;99.90;;;;;;4927512;29;20024;-79
2022/06/25 08:21:48;;;;;;;6.60;1.20;;;19.90;99.90;;;;;;4938745;29;20107;-78
2022/06/25 08:24:13;;;;;;;2.50;1.10;;;20.00;99.90;;;;;;4942200;29;20078;-80
2022/06/25 08:26:39;;;;;;;1.23;0.98;;;20.00;99.90;;;;;;4940436;29;20309;-79
2022/06/25 08:29:05;;;;;;;2.20;1.00;;;20.10;99.90;;;;;;4941601;29;20023;-78
2022/06/25 08:31:30;;;;;;;1.23;1.10;;;20.20;99.90;;;;;;4939135;29;20039;-80
2022/06/25 08:33:56;;;;;;;3.42;0.98;;;20.20;99.90;;;;;;4915069;29;20107;-80
2022/06/25 08:36:22;;;;;;;10.43;2.38;;;20.10;99.90;;;;;;4932188;29;20369;-79
2022/06/25 08:38:48;;;;;;;2.45;1.40;;;20.10;99.90;;;;;;4934090;29;20107;-78
2022/06/25 08:41:14;;;;;;;2.92;1.77;;;20.30;99.90;;;;;;4934098;29;20027;-79
2022/06/25 08:43:41;;;;;;;4.18;1.27;;;20.40;99.90;;;;;;4935930;29;20019;-78
2022/06/25 08:46:07;;;;;;;3.45;1.55;;;20.40;99.90;;;;;;4943770;29;20060;-78
2022/06/25 08:48:36;;;;;;;3.20;1.30;;;20.40;99.90;;;;;;4939560;29;20011;-79
2022/06/25 08:51:02;;;;;;;4.15;1.30;;;20.60;99.90;;;;;;4934535;29;20044;-78
2022/06/25 08:53:32;;;;;;;2.90;1.20;;;20.60;99.90;;;;;;4935292;29;20030;-79
2022/06/25 08:56:00;;;;;;;1.70;0.98;;;20.50;99.90;;;;;;4935377;29;20032;-79
2022/06/25 08:58:26;;;;;;;2.00;1.00;;;20.50;99.90;;;;;;4932669;29;20071;-80
2022/06/25 09:00:52;;;;;;;3.35;1.10;;;20.40;99.90;;;;;;4924757;29;20039;-79
2022/06/25 09:03:18;;;;;;;1.42;0.95;;;20.40;99.90;;;;;;4926891;29;20047;-79
2022/06/25 09:05:44;;;;;;;1.48;1.10;;;20.30;99.90;;;;;;4933205;29;20047;-78
2022/06/25 09:08:15;;;;;;;2.45;0.90;;;20.60;99.90;;;;;;4932503;29;20059;-79
2022/06/25 09:10:46;;;;;;;2.60;1.30;;;20.60;99.90;;;;;;4933806;29;20036;-78
2022/06/25 09:13:13;;;;;;;7.55;0.90;;;20.70;99.90;;;;;;4932972;29;20080;-79
2022/06/25 09:15:45;;;;;;;0.82;0.82;;;20.80;99.90;;;;;;4933199;29;20055;-79
2022/06/25 09:18:15;;;;;;;2.33;1.00;;;20.80;99.90;;;;;;4932877;29;20039;-79
2022/06/25 09:21:03;;;;;;;7.15;1.00;;;20.60;99.90;;;;;;4932171;29;20035;-79
2022/06/25 09:23:53;;;;;;;1.27;0.95;;;20.70;99.90;;;;;;4931626;29;20134;-82
2022/06/25 09:26:19;;;;;;;1.65;0.70;;;20.80;99.90;;;;;;4932845;29;20095;-80
2022/06/25 09:28:46;;;;;;;1.90;0.93;;;20.70;99.90;;;;;;4932511;29;20024;-79
2022/06/25 09:31:12;;;;;;;2.60;0.90;;;20.80;99.90;;;;;;4931388;29;20054;-80
2022/06/25 09:33:40;;;;;;;0.80;0.70;;;20.90;99.90;;;;;;4932426;29;20095;-82
2022/06/25 09:36:10;;;;;;;0.70;0.70;;;21.00;99.90;;;;;;4931582;29;20075;-81
2022/06/25 09:38:48;;;;;;;10.32;0.82;;;21.10;99.90;;;;;;4932470;29;20023;-82
2022/06/25 09:41:13;;;;;;;0.80;0.80;;;21.10;99.90;;;;;;4930599;29;20488;-78
2022/06/25 09:43:41;;;;;;;3.03;1.02;;;21.10;99.90;;;;;;4937327;29;20034;-81
2022/06/25 09:46:07;;;;;;;4.75;1.10;;;21.10;99.90;;;;;;4939003;29;20032;-81
2022/06/25 09:48:38;;;;;;;2.90;0.80;;;21.20;99.90;;;;;;4938428;29;20090;-80
2022/06/25 09:51:20;;;;;;;1.33;1.00;;;21.30;99.90;;;;;;4937454;29;20031;-82
2022/06/25 09:53:50;;;;;;;1.48;1.20;;;21.30;99.90;;;;;;4946538;29;20535;-82
2022/06/25 09:56:21;;;;;;;1.50;0.90;;;21.30;99.90;;;;;;4948408;29;20024;-80
2022/06/25 09:58:49;;;;;;;0.73;0.73;;;21.50;99.90;;;;;;4946120;29;20031;-81
2022/06/25 10:01:17;;;;;;;1.52;0.65;;;21.50;99.90;;;;;;4938102;29;20444;-81
2022/06/25 10:03:44;;;;;;;1.58;0.77;;;21.50;99.90;;;;;;4936824;29;20167;-82
2022/06/25 10:06:14;;;;;;;1.85;0.75;;;21.60;99.90;;;;;;4938601;29;20072;-82
2022/06/25 10:09:02;;;;;;;0.70;0.70;;;21.60;99.90;;;;;;4935254;29;20092;-80
2022/06/25 10:11:30;;;;;;;1.10;0.77;;;21.60;99.90;;;;;;4933890;29;20047;-81
2022/06/25 10:13:57;;;;;;;1.55;1.45;;;21.70;99.90;;;;;;4931488;29;20024;-80
2022/06/25 10:16:24;;;;;;;2.78;0.90;;;21.60;99.90;;;;;;4927096;29;20059;-80
2022/06/25 10:18:52;;;;;;;2.45;0.85;;;21.60;99.90;;;;;;4941243;29;20019;-80
2022/06/25 10:21:19;;;;;;;1.77;0.80;;;21.60;99.90;;;;;;4934452;29;20043;-81
2022/06/25 10:23:48;;;;;;;1.10;0.90;;;21.60;99.90;;;;;;4933117;29;20034;-81
2022/06/25 10:26:14;;;;;;;1.38;0.80;;;21.50;99.90;;;;;;4931397;29;20036;-81
2022/06/25 10:28:41;;;;;;;0.73;0.60;;;21.50;99.90;;;;;;4934280;29;20028;-80
2022/06/25 10:31:17;;;;;;;1.50;1.00;;;21.50;99.90;;;;;;4930969;29;20047;-81
2022/06/25 10:34:17;;;;;;;1.85;1.02;;;21.30;99.90;;;;;;4936471;29;20031;-81
2022/06/25 10:36:57;;;;;;;0.77;0.77;;;21.40;99.90;;;;;;4946328;29;20044;-80
2022/06/25 10:39:25;;;;;;;4.85;0.90;;;21.50;99.90;;;;;;4936969;29;20032;-79
2022/06/25 10:45:04;;;;;;;3.15;1.00;;;21.50;99.90;;;;;;4936248;29;20035;-81
2022/06/25 10:47:40;;;;;;;2.40;0.77;;;21.50;99.90;;;;;;4937995;29;20500;-82
2022/06/25 10:50:21;;;;;;;4.10;2.10;;;21.60;99.90;;;;;;4936482;29;20047;-81
2022/06/25 10:53:05;;;;;;;2.15;0.55;;;21.70;99.90;;;;;;4945198;29;20031;-81
2022/06/25 10:55:38;;;;;;;1.17;0.80;;;21.70;99.90;;;;;;4953763;28;20040;-80
2022/06/25 10:58:21;;;;;;;1.70;0.77;;;21.70;99.90;;;;;;4938144;29;20071;-82
2022/06/25 11:00:47;;;;;;;3.05;0.73;;;21.60;99.90;;;;;;4950408;29;20047;-78
2022/06/25 11:03:14;;;;;;;2.03;0.90;;;21.60;99.90;;;;;;4944609;29;20040;-80
2022/06/25 11:05:45;;;;;;;0.70;0.70;;;21.60;99.90;;;;;;4949685;29;20095;-80
2022/06/25 11:08:12;;;;;;;2.42;0.85;;;21.80;99.90;;;;;;4940259;29;20028;-82
2022/06/25 11:10:39;;;;;;;2.20;0.88;;;22.00;99.90;;;;;;4948113;29;20031;-80
2022/06/25 11:13:05;;;;;;;3.85;2.92;;;22.30;99.90;;;;;;4933643;29;20028;-80
2022/06/25 11:15:43;;;;;;;5.70;3.45;;;22.50;99.90;;;;;;4942147;29;20020;-81
2022/06/25 11:18:13;;;;;;;1.38;0.90;;;22.40;99.90;;;;;;4945246;29;20050;-80
2022/06/25 11:20:40;;;;;;;1.33;0.85;;;22.80;99.90;;;;;;4962272;28;20067;-80
2022/06/25 11:23:10;;;;;;;2.08;0.70;;;23.10;99.90;;;;;;4953834;29;20047;-83
2022/06/25 11:28:48;;;;;;;4.07;0.70;;;24.20;99.90;;;;;;4942646;29;20028;-82
2022/06/25 11:31:16;;;;;;;2.88;0.90;;;24.90;99.90;;;;;;4943125;29;20040;-83
2022/06/25 11:33:43;;;;;;;1.27;0.65;;;25.10;99.90;;;;;;4942442;29;20008;-85
2022/06/25 11:36:10;;;;;;;2.90;0.90;;;25.30;99.70;;;;;;4942469;29;20052;-83
2022/06/25 11:38:36;;;;;;;0.70;0.70;;;25.40;99.70;;;;;;4942642;29;20016;-83
2022/06/25 11:41:03;;;;;;;1.55;0.70;;;25.70;99.00;;;;;;4943197;29;20043;-82
2022/06/25 11:43:29;;;;;;;0.70;0.70;;;25.50;99.20;;;;;;4942235;29;20027;-84
2022/06/25 11:45:59;;;;;;;2.33;0.77;;;25.80;98.60;;;;;;4942776;29;20095;-88
2022/06/25 11:48:33;;;;;;;2.25;0.60;;;25.80;98.30;;;;;;4941742;29;20016;-82
2022/06/25 11:51:00;;;;;;;;;;;26.10;98.20;;;;;;4942359;29;20047;-82
2022/06/25 11:53:27;;;;;;;1.00;0.60;;;26.30;97.60;;;;;;4943390;29;19899;-83
2022/06/25 11:55:59;;;;;;;0.70;0.70;;;26.20;97.50;;;;;;4943104;29;20036;-81
2022/06/25 11:58:28;;;;;;;0.75;0.50;;;26.00;97.10;;;;;;4942200;29;20024;-82
2022/06/25 12:00:56;;;;;;;3.88;0.90;;;26.00;97.20;;;;;;4942306;29;20027;-82
2022/06/25 12:03:29;;;;;;;1.42;0.82;;;25.90;97.10;;;;;;4942495;29;20028;-83
2022/06/25 12:05:57;;;;;;;1.77;0.60;;;26.10;97.10;;;;;;4942123;29;20086;-82
2022/06/25 12:08:24;;;;;;;0.77;0.70;;;26.40;96.40;;;;;;4942517;29;20099;-83
2022/06/25 12:10:51;;;;;;;5.18;0.85;;;26.40;96.20;;;;;;4942521;29;20044;-84
2022/06/25 12:13:21;;;;;;;2.38;0.65;;;26.60;96.30;;;;;;4942379;29;20050;-82
2022/06/25 12:15:47;;;;;;;2.08;1.23;;;26.70;95.90;;;;;;4941512;29;20016;-82
2022/06/25 12:18:13;;;;;;;2.60;0.88;;;26.50;96.00;;;;;;4942225;29;20036;-81
2022/06/25 12:20:56;;;;;;;4.22;0.70;;;27.40;95.60;;;;;;4941783;29;20056;-82
2022/06/25 12:23:22;;;;;;;0.82;0.57;;;28.80;93.90;;;;;;4941990;29;20040;-83
2022/06/25 12:25:48;;;;;;;0.77;0.60;;;29.30;93.00;;;;;;4942516;29;20075;-83
2022/06/25 12:28:15;;;;;;;2.13;0.60;;;29.30;92.20;;;;;;4941815;29;20052;-84
2022/06/25 12:30:42;;;;;;;0.90;0.60;;;29.20;92.20;;;;;;4942254;29;20037;-83
2022/06/25 12:33:13;;;;;;;2.47;0.95;;;29.20;92.30;;;;;;4941775;29;20036;-82
2022/06/25 12:35:43;;;;;;;1.05;0.60;;;29.10;92.10;;;;;;4942050;29;20223;-83
2022/06/25 12:38:14;;;;;;;1.05;0.68;;;28.70;92.30;;;;;;4939817;29;20100;-83
2022/06/25 12:40:49;;;;;;;1.15;0.70;;;28.20;92.70;;;;;;4941822;29;20051;-84
2022/06/25 12:43:16;;;;;;;;;;;27.90;93.20;;;;;;4941387;29;20016;-83
2022/06/25 12:45:45;;;;;;;2.28;0.90;;;27.60;92.80;;;;;;4941314;29;19899;-84
2022/06/25 12:48:11;;;;;;;0.88;0.60;;;27.30;93.50;;;;;;4938383;29;20036;-83
2022/06/25 12:50:46;;;;;;;2.67;1.02;;;27.60;93.30;;;;;;4941625;29;20036;-84
2022/06/25 12:53:15;;;;;;;;;;;27.60;92.90;;;;;;4942148;29;20024;-84
2022/06/25 12:55:47;;;;;;;3.40;1.10;;;27.40;93.00;;;;;;4941312;29;19954;-83
2022/06/25 12:58:14;;;;;;;0.93;0.80;;;27.00;93.50;;;;;;4940083;29;20064;-83
2022/06/25 13:00:44;;;;;;;2.78;0.82;;;26.70;94.20;;;;;;4939893;29;20035;-83
2022/06/25 13:03:10;;;;;;;0.75;0.75;;;26.70;94.40;;;;;;4939664;29;20024;-85
2022/06/25 13:05:36;;;;;;;4.32;2.05;;;26.50;94.50;;;;;;4941085;29;20020;-84
2022/06/25 13:08:03;;;;;;;1.10;0.88;;;27.10;94.40;;;;;;4941113;29;20027;-82
2022/06/25 13:10:30;;;;;;;1.52;0.80;;;28.00;93.60;;;;;;4940957;29;20116;-81
2022/06/25 13:12:56;;;;;;;1.60;1.27;;;28.50;93.00;;;;;;4940942;29;20067;-84
2022/06/25 13:15:23;;;;;;;0.68;0.60;;;29.20;92.40;;;;;;4941278;29;20024;-83
2022/06/25 13:17:50;;;;;;;3.08;0.90;;;29.70;91.80;;;;;;4940850;29;20115;-83